Time;durP1;ratioP1;P1;durP2;ratioP2;P2;SDS_P1;SDS_P2;PMS_P1;PMS_P2;Temp;Humidity;BMP_temperature;BMP_pressure;BME280_temperature;BME280_humidity;BME280_pressure;Samples;Min_cycle;Max_cycle;Signal;HPM_P1;HPM_P2
2021/01/05 00:00:33;;;;;;;1.07;0.97;;;;;;;1.09;86.45;102506.72;4946566;28;20213;-68
2021/01/05 00:03:01;;;;;;;1.70;1.23;;;;;;;1.29;86.82;102543.78;4942793;28;20233;-69
2021/01/05 00:05:28;;;;;;;2.17;1.50;;;;;;;1.27;87.15;102537.59;4946025;28;20204;-68
2021/01/05 00:07:55;;;;;;;1.20;1.10;;;;;;;1.27;86.91;102534.94;4941796;28;20267;-68
2021/01/05 00:10:22;;;;;;;1.47;1.17;;;;;;;1.27;86.82;102536.72;4945108;28;20667;-68
2021/01/05 00:12:50;;;;;;;2.43;1.27;;;;;;;1.23;86.86;102536.72;4946711;28;20545;-68
2021/01/05 00:15:18;;;;;;;2.27;1.03;;;;;;;1.20;86.76;102527.88;4945038;28;20204;-69
2021/01/05 00:17:45;;;;;;;1.20;1.10;;;;;;;1.21;86.86;102538.44;4948476;28;20208;-68
2021/01/05 00:20:21;;;;;;;1.77;1.40;;;;;;;1.17;87.07;102543.75;4947364;28;20214;-69
2021/01/05 00:22:48;;;;;;;1.17;1.00;;;;;;;1.15;87.08;102535.81;4943978;28;20228;-68
2021/01/05 00:25:17;;;;;;;1.57;1.30;;;;;;;0.77;87.30;102463.53;4948352;28;20212;-69
2021/01/05 00:27:44;;;;;;;1.47;1.37;;;;;;;1.16;87.04;102527.00;4947671;28;20205;-69
2021/01/05 00:30:16;;;;;;;1.23;1.10;;;;;;;1.11;87.00;102526.13;4945492;28;20201;-69
2021/01/05 00:32:44;;;;;;;1.30;1.00;;;;;;;0.89;87.05;102493.50;4944629;28;20208;-69
2021/01/05 00:35:14;;;;;;;0.80;0.80;;;;;;;1.13;87.26;102534.06;4945513;28;20208;-68
2021/01/05 00:37:41;;;;;;;2.10;1.30;;;;;;;1.10;87.24;102526.13;4946999;28;20309;-69
2021/01/05 00:40:09;;;;;;;1.10;0.93;;;;;;;1.11;87.45;102522.59;4945224;28;20432;-69
2021/01/05 00:42:37;;;;;;;1.17;1.07;;;;;;;1.07;87.41;102526.13;4947281;29;20230;-68
2021/01/05 00:45:06;;;;;;;0.90;0.90;;;;;;;1.17;87.21;102517.28;4946548;28;20299;-68
2021/01/05 00:47:35;;;;;;;1.50;1.10;;;;;;;0.83;86.98;102469.69;4951124;28;20227;-69
2021/01/05 00:50:03;;;;;;;1.47;1.10;;;;;;;1.15;87.29;102519.06;4930372;29;20313;-69
2021/01/05 00:52:32;;;;;;;2.43;1.30;;;;;;;1.10;87.34;102516.41;4930616;29;20204;-69
2021/01/05 00:54:59;;;;;;;1.07;0.97;;;;;;;1.04;87.52;102507.63;4946496;28;20217;-69
2021/01/05 00:57:27;;;;;;;2.00;1.23;;;;;;;1.11;87.49;102525.25;4928334;29;20216;-69
2021/01/05 00:59:55;;;;;;;2.03;1.20;;;;;;;1.12;87.66;102525.25;4929425;28;20209;-68
2021/01/05 01:02:23;;;;;;;1.23;1.13;;;;;;;1.10;87.61;102521.72;4928679;29;20231;-69
2021/01/05 01:04:51;;;;;;;2.07;1.23;;;;;;;0.86;87.59;102474.09;4927535;28;20215;-69
2021/01/05 01:07:18;;;;;;;0.90;0.90;;;;;;;1.14;87.47;102523.47;4945858;28;20555;-68
2021/01/05 01:09:46;;;;;;;2.50;1.97;;;;;;;1.07;87.63;102521.72;4930369;29;20237;-69
2021/01/05 01:12:16;;;;;;;3.03;2.27;;;;;;;1.07;88.03;102526.13;4946343;28;20260;-68
2021/01/05 01:14:48;;;;;;;2.97;1.43;;;;;;;1.11;88.06;102528.75;4928681;29;20219;-68
2021/01/05 01:17:18;;;;;;;2.10;1.43;;;;;;;0.89;87.81;102487.31;4945118;28;20264;-68
2021/01/05 01:19:46;;;;;;;2.03;1.27;;;;;;;1.20;87.89;102533.16;4947222;28;20635;-69
2021/01/05 01:22:17;;;;;;;1.67;1.50;;;;;;;1.19;87.95;102541.97;4937888;29;20243;-68
2021/01/05 01:24:44;;;;;;;1.43;1.10;;;;;;;1.19;87.72;102531.41;4929558;29;20275;-69
2021/01/05 01:27:24;;;;;;;5.50;1.20;;;;;;;1.25;87.93;102539.38;4929417;29;20283;-69
2021/01/05 01:29:52;;;;;;;1.27;1.00;;;;;;;0.79;87.65;102460.00;4930946;29;20220;-68
2021/01/05 01:32:19;;;;;;;1.47;1.10;;;;;;;1.17;87.91;102530.53;4944506;28;20626;-69
2021/01/05 01:34:46;;;;;;;2.27;1.40;;;;;;;1.18;87.55;102525.22;4948350;29;20606;-68
2021/01/05 01:37:19;;;;;;;2.60;1.73;;;;;;;1.19;87.59;102531.41;4943740;28;20213;-68
2021/01/05 01:39:52;;;;;;;0.90;0.90;;;;;;;1.20;87.62;102538.47;4931428;29;20703;-68
2021/01/05 01:42:25;;;;;;;1.43;1.20;;;;;;;1.12;87.73;102529.66;4929160;28;20311;-68
2021/01/05 01:44:53;;;;;;;1.17;1.13;;;;;;;1.13;87.60;102528.75;4947845;28;20213;-69
2021/01/05 01:47:26;;;;;;;2.27;2.03;;;;;;;1.20;87.66;102533.16;4944314;28;20251;-68
2021/01/05 01:49:59;;;;;;;1.33;1.23;;;;;;;1.19;87.62;102523.47;4932138;28;20222;-68
2021/01/05 01:52:47;;;;;;;2.17;1.23;;;;;;;1.30;87.14;102528.78;4934603;29;20220;-69
2021/01/05 01:55:31;;;;;;;2.20;1.10;;;;;;;1.23;87.27;102517.31;4958701;28;20232;-71
2021/01/05 01:58:19;;;;;;;3.47;1.70;;;;;;;1.29;87.13;102519.06;4938535;28;20215;-71
2021/01/05 02:01:06;;;;;;;1.50;1.00;;;;;;;1.17;87.14;102523.47;4952147;28;20213;-70
2021/01/05 02:04:00;;;;;;;2.07;1.10;;;;;;;1.21;87.17;102532.28;4938469;29;20197;-69
2021/01/05 02:06:50;;;;;;;1.43;1.20;;;;;;;1.20;87.31;102530.53;4936151;28;20215;-68
2021/01/05 02:09:45;;;;;;;2.23;1.23;;;;;;;1.11;87.13;102502.31;4932042;29;20410;-69
2021/01/05 02:12:21;;;;;;;1.97;1.40;;;;;;;0.96;87.22;102493.50;4952302;28;20208;-68
2021/01/05 02:14:59;;;;;;;1.50;1.40;;;;;;;1.20;86.89;102522.59;4934783;29;20204;-68
2021/01/05 02:18:06;;;;;;;3.93;1.30;;;;;;;1.23;87.18;102527.91;4936453;29;20266;-68
2021/01/05 02:20:40;;;;;;;1.83;1.40;;;;;;;1.26;87.07;102527.00;4935008;29;20630;-73
2021/01/05 02:23:23;;;;;;;2.23;1.30;;;;;;;1.21;87.20;102514.66;4934460;29;20237;-73
2021/01/05 02:26:02;;;;;;;1.53;1.20;;;;;;;1.26;87.19;102527.00;4952768;28;20214;-73
2021/01/05 02:28:38;;;;;;;2.27;1.40;;;;;;;1.03;86.82;102471.47;4936514;28;20212;-73
2021/01/05 02:31:19;;;;;;;1.93;1.43;;;;;;;1.26;86.96;102509.38;4936719;29;20236;-73
2021/01/05 02:33:53;;;;;;;1.87;1.40;;;;;;;1.27;87.00;102511.13;4936919;28;20216;-73
2021/01/05 02:36:54;;;;;;;1.00;1.00;;;;;;;1.23;87.08;102507.63;4937591;29;20218;-72
2021/01/05 02:39:58;;;;;;;1.57;1.23;;;;;;;1.27;86.79;102503.19;4943633;28;20301;-72
2021/01/05 02:43:16;;;;;;;0.93;0.93;;;;;;;1.16;87.21;102515.53;4959480;28;20322;-72
2021/01/05 02:46:14;;;;;;;2.60;1.20;;;;;;;1.12;87.36;102496.13;4954636;28;20298;-72
2021/01/05 02:49:10;;;;;;;1.40;1.30;;;;;;;1.10;87.43;102491.72;4964413;28;20305;-72
2021/01/05 02:52:27;;;;;;;1.30;1.20;;;;;;;1.07;87.58;102502.31;4946197;28;20272;-72
2021/01/05 02:56:05;;;;;;;1.20;0.70;;;;;;;1.09;87.49;102500.56;4969270;28;20242;-72
2021/01/05 02:59:20;;;;;;;290.73;114.03;;;;;;;1.09;87.61;102508.50;4868027;29;20589;-72
2021/01/05 03:02:47;;;;;;;4.57;2.73;;;;;;;1.11;87.43;102504.06;4883388;29;20330;-72
2021/01/05 03:05:33;;;;;;;1.63;1.53;;;;;;;1.11;87.68;102506.72;4916635;28;20218;-72
2021/01/05 03:08:29;;;;;;;1.27;1.07;;;;;;;1.12;87.80;102508.47;4960817;28;20219;-72
2021/01/05 03:11:19;;;;;;;1.87;1.10;;;;;;;1.12;87.35;102521.72;4974031;28;20240;-72
2021/01/05 03:14:13;;;;;;;1.67;1.27;;;;;;;1.20;87.52;102509.34;4954701;28;20219;-72
2021/01/05 03:17:08;;;;;;;2.17;1.40;;;;;;;1.28;87.74;102512.91;4955846;28;20231;-72
2021/01/05 03:20:05;;;;;;;1.40;1.27;;;;;;;1.27;87.14;102507.63;4968357;28;20218;-72
2021/01/05 03:22:55;;;;;;;2.67;1.40;;;;;;;1.23;87.21;102510.25;4955449;28;20354;-72
2021/01/05 03:25:45;;;;;;;0.93;0.93;;;;;;;1.23;87.08;102506.72;4965749;28;20589;-72
2021/01/05 03:28:32;;;;;;;1.33;1.10;;;;;;;1.26;86.85;102514.66;4967673;28;20227;-72
2021/01/05 03:31:23;;;;;;;2.10;1.27;;;;;;;1.22;86.67;102513.78;4951512;28;20701;-72
2021/01/05 03:34:09;;;;;;;1.97;1.20;;;;;;;1.21;87.23;102511.13;4960631;28;20317;-72
2021/01/05 03:36:55;;;;;;;2.37;1.50;;;;;;;1.24;86.73;102503.22;4962176;28;20242;-72
2021/01/05 03:39:41;;;;;;;1.27;1.10;;;;;;;1.24;86.76;102506.72;4945689;28;20287;-72
2021/01/05 03:42:38;;;;;;;1.33;1.23;;;;;;;1.06;86.70;102482.03;4892824;29;20242;-72
2021/01/05 03:45:26;;;;;;;3.80;1.60;;;;;;;1.23;86.67;102512.03;4948794;28;20218;-72
2021/01/05 03:48:13;;;;;;;1.60;1.37;;;;;;;1.22;86.77;102520.81;4962815;28;20293;-72
2021/01/05 03:50:58;;;;;;;2.03;1.30;;;;;;;1.20;87.16;102501.41;4952273;28;20216;-72
2021/01/05 03:53:44;;;;;;;3.13;1.23;;;;;;;1.02;86.70;102472.34;4955444;28;20215;-73
2021/01/05 03:56:30;;;;;;;3.50;1.80;;;;;;;1.27;86.84;102504.97;4965628;28;20702;-73
2021/01/05 03:59:16;;;;;;;3.50;1.50;;;;;;;1.32;86.65;102509.38;4949946;28;20217;-72
2021/01/05 04:02:01;;;;;;;2.30;1.33;;;;;;;1.29;86.32;102512.00;4956409;28;20250;-73
2021/01/05 04:04:29;;;;;;;2.90;1.40;;;;;;;1.25;86.61;102504.97;4970534;28;20961;-72
2021/01/05 04:06:56;;;;;;;2.47;1.77;;;;;;;1.32;86.62;102509.38;4967072;28;20600;-72
2021/01/05 04:09:23;;;;;;;1.83;0.90;;;;;;;1.32;86.42;102506.72;4952211;28;20283;-73
2021/01/05 04:11:50;;;;;;;1.97;1.47;;;;;;;1.28;86.40;102504.09;4945405;28;20292;-72
2021/01/05 04:14:18;;;;;;;1.53;1.17;;;;;;;1.26;86.66;102505.84;4932133;28;20214;-72
2021/01/05 04:16:46;;;;;;;1.83;1.27;;;;;;;1.30;86.36;102502.31;4941994;28;20209;-72
2021/01/05 04:19:14;;;;;;;1.30;1.20;;;;;;;1.35;86.35;102512.00;4930597;29;20233;-72
2021/01/05 04:21:42;;;;;;;2.60;1.20;;;;;;;1.33;86.47;102505.84;4935957;28;20663;-72
2021/01/05 04:24:09;;;;;;;1.63;1.20;;;;;;;1.21;86.44;102490.81;4948219;28;20205;-72
2021/01/05 04:26:36;;;;;;;1.53;1.40;;;;;;;1.38;86.39;102506.69;4938093;28;20213;-72
2021/01/05 04:29:03;;;;;;;1.73;1.20;;;;;;;1.33;86.34;102502.31;4944964;28;20206;-72
2021/01/05 04:31:37;;;;;;;0.90;0.90;;;;;;;1.17;86.30;102491.72;4942313;28;20209;-72
2021/01/05 04:34:05;;;;;;;1.73;0.90;;;;;;;1.24;86.62;102503.22;4932898;28;20224;-72
2021/01/05 04:36:32;;;;;;;1.43;1.00;;;;;;;1.22;86.64;102495.28;4931291;29;20215;-71
2021/01/05 04:39:00;;;;;;;1.90;1.23;;;;;;;1.23;86.72;102497.03;4936420;28;20212;-72
2021/01/05 04:41:27;;;;;;;1.97;1.30;;;;;;;1.25;86.61;102494.38;4951327;28;20220;-72
2021/01/05 04:43:58;;;;;;;2.20;1.60;;;;;;;1.31;86.87;102501.44;4952054;28;20632;-72
2021/01/05 04:46:46;;;;;;;2.73;1.50;;;;;;;1.32;86.78;102512.00;4953359;28;20284;-72
2021/01/05 04:49:38;;;;;;;1.27;1.13;;;;;;;1.27;86.86;102511.13;4944897;28;20223;-71
2021/01/05 04:52:10;;;;;;;18.27;7.63;;;;;;;1.21;87.24;102509.34;4969383;28;20208;-72
2021/01/05 04:54:44;;;;;;;2.57;1.47;;;;;;;1.22;87.72;102499.66;4963916;28;20209;-72
2021/01/05 04:57:22;;;;;;;1.43;1.27;;;;;;;1.24;87.88;102508.50;4955429;28;20690;-72
2021/01/05 04:59:53;;;;;;;2.47;1.30;;;;;;;1.22;88.12;102510.22;4946332;28;20209;-71
2021/01/05 05:02:34;;;;;;;2.57;1.70;;;;;;;1.17;88.53;102514.66;4958129;28;20232;-72
2021/01/05 05:05:16;;;;;;;2.77;1.43;;;;;;;1.09;88.76;102505.84;4945825;28;20684;-72
2021/01/05 05:07:57;;;;;;;1.53;1.20;;;;;;;1.12;88.69;102519.06;4956764;28;20586;-72
2021/01/05 05:10:31;;;;;;;1.20;1.20;;;;;;;1.10;89.11;102518.19;4933920;28;20215;-71
2021/01/05 05:13:08;;;;;;;1.37;1.07;;;;;;;1.10;89.27;102523.47;4947749;28;20316;-71
2021/01/05 05:15:44;;;;;;;3.50;1.80;;;;;;;1.08;89.26;102514.66;4967187;28;20195;-71
2021/01/05 05:18:23;;;;;;;1.10;0.90;;;;;;;1.12;89.34;102517.31;4969367;28;20534;-71
2021/01/05 05:21:24;;;;;;;3.70;1.40;;;;;;;1.08;89.68;102533.19;4938205;28;20247;-71
2021/01/05 05:24:19;;;;;;;2.63;1.47;;;;;;;1.05;89.65;102522.59;4927917;28;20614;-71
2021/01/05 05:26:52;;;;;;;1.87;1.33;;;;;;;1.05;89.34;102517.31;4936302;28;20286;-70
2021/01/05 05:29:41;;;;;;;2.67;2.03;;;;;;;1.11;89.34;102523.47;4947072;28;20310;-71
2021/01/05 05:32:23;;;;;;;4.90;1.60;;;;;;;1.09;89.54;102524.34;4946105;28;20204;-71
2021/01/05 05:34:57;;;;;;;2.10;1.20;;;;;;;1.04;90.02;102521.72;4947225;28;20217;-71
2021/01/05 05:37:37;;;;;;;1.97;1.20;;;;;;;1.03;90.07;102524.38;4946242;28;20207;-71
2021/01/05 05:40:13;;;;;;;2.83;1.60;;;;;;;1.00;89.97;102525.25;4944969;28;20200;-71
2021/01/05 05:43:16;;;;;;;2.07;1.37;;;;;;;1.06;90.14;102522.59;4947132;28;20238;-72
2021/01/05 05:45:47;;;;;;;1.77;1.50;;;;;;;1.03;90.12;102517.31;4936493;28;20228;-72
2021/01/05 05:48:22;;;;;;;5.70;1.47;;;;;;;1.08;90.16;102520.84;4944323;28;20201;-72
2021/01/05 05:51:02;;;;;;;2.67;1.40;;;;;;;1.06;89.87;102529.66;4940739;28;20212;-72
2021/01/05 05:53:35;;;;;;;2.50;1.73;;;;;;;1.06;90.03;102519.06;4937116;28;20204;-72
2021/01/05 05:56:05;;;;;;;1.47;1.20;;;;;;;1.06;89.73;102517.31;4938746;29;20909;-72
2021/01/05 05:58:39;;;;;;;2.40;1.30;;;;;;;1.03;89.84;102514.66;4947303;28;20241;-71
2021/01/05 06:01:11;;;;;;;2.60;1.50;;;;;;;0.64;89.50;102445.91;4941064;28;20207;-72
2021/01/05 06:03:38;;;;;;;3.30;1.70;;;;;;;1.09;89.53;102524.34;4936896;28;20228;-72
2021/01/05 06:06:06;;;;;;;1.97;1.77;;;;;;;1.09;89.50;102522.59;4940076;28;20217;-72
2021/01/05 06:08:33;;;;;;;1.70;1.47;;;;;;;1.10;89.35;102519.06;4944866;28;20204;-72
2021/01/05 06:11:02;;;;;;;1.83;1.50;;;;;;;1.13;89.51;102516.41;4938345;28;20230;-72
2021/01/05 06:13:29;;;;;;;1.40;1.20;;;;;;;1.11;89.32;102517.31;4937497;28;20212;-72
2021/01/05 06:15:57;;;;;;;3.10;1.47;;;;;;;1.14;89.08;102525.22;4931878;28;20212;-72
2021/01/05 06:18:25;;;;;;;2.90;1.13;;;;;;;1.10;89.10;102515.53;4944276;28;20646;-72
2021/01/05 06:20:52;;;;;;;3.67;1.33;;;;;;;1.16;89.10;102520.81;4948977;28;20751;-72
2021/01/05 06:23:19;;;;;;;2.03;1.40;;;;;;;1.12;89.18;102516.41;4947492;28;20232;-72
2021/01/05 06:25:46;;;;;;;6.27;1.50;;;;;;;1.08;89.23;102526.13;4918963;29;20209;-72
2021/01/05 06:28:14;;;;;;;1.10;1.00;;;;;;;0.83;89.18;102480.25;4939265;28;20209;-72
2021/01/05 06:30:41;;;;;;;1.87;1.40;;;;;;;0.96;89.52;102517.31;4927165;29;20216;-72
2021/01/05 06:33:11;;;;;;;1.97;1.47;;;;;;;1.01;89.61;102526.13;4937204;28;20234;-72
2021/01/05 06:35:38;;;;;;;1.80;1.37;;;;;;;1.02;89.45;102546.41;4935052;28;20585;-72
2021/01/05 06:38:05;;;;;;;1.23;1.00;;;;;;;1.04;89.61;102531.41;4940642;28;20210;-72
2021/01/05 06:40:32;;;;;;;671.33;261.80;;;;;;;1.01;89.64;102528.78;4941735;28;20223;-72
2021/01/05 06:43:00;;;;;;;3.77;2.47;;;;;;;0.95;89.67;102537.59;4935383;28;20226;-72
2021/01/05 06:45:29;;;;;;;2.93;1.70;;;;;;;1.02;89.92;102534.06;4936325;28;20304;-72
2021/01/05 06:47:58;;;;;;;2.60;2.30;;;;;;;0.98;89.68;102526.13;4962679;28;20224;-72
2021/01/05 06:50:28;;;;;;;2.00;1.10;;;;;;;1.02;89.53;102533.19;4970153;28;20276;-72
2021/01/05 06:52:55;;;;;;;1.43;1.30;;;;;;;1.02;89.60;102530.53;4970899;28;20204;-72
2021/01/05 06:55:23;;;;;;;1.50;1.40;;;;;;;1.02;89.76;102530.53;4970981;28;20283;-72
2021/01/05 06:57:51;;;;;;;2.17;1.57;;;;;;;1.01;89.79;102534.06;4971179;28;20203;-72
2021/01/05 07:00:20;;;;;;;1.30;1.20;;;;;;;0.94;89.66;102530.53;4970518;28;20283;-72
2021/01/05 07:02:48;;;;;;;1.20;1.03;;;;;;;0.80;89.69;102519.94;4970727;28;20235;-72
2021/01/05 07:05:16;;;;;;;1.93;1.20;;;;;;;0.76;89.86;102504.06;4970719;28;20243;-72
2021/01/05 07:07:45;;;;;;;1.90;1.33;;;;;;;1.01;89.68;102536.72;4970658;28;20195;-72
2021/01/05 07:10:13;;;;;;;6.77;4.83;;;;;;;0.98;89.39;102534.06;4970532;28;20214;-72
2021/01/05 07:12:40;;;;;;;8.83;4.33;;;;;;;1.03;89.50;102538.47;4970776;28;20196;-72
2021/01/05 07:15:09;;;;;;;2.20;1.47;;;;;;;0.98;89.52;102542.00;4970562;28;20229;-72
2021/01/05 07:17:37;;;;;;;1.40;1.27;;;;;;;1.02;89.44;102547.28;4970775;28;20226;-72
2021/01/05 07:20:07;;;;;;;2.90;1.90;;;;;;;0.83;89.41;102514.66;4970495;28;20212;-72
2021/01/05 07:22:35;;;;;;;1.60;1.20;;;;;;;0.90;89.16;102531.38;4965167;28;20251;-72
2021/01/05 07:25:04;;;;;;;1.47;1.37;;;;;;;0.93;89.50;102539.34;4970478;28;20691;-72
2021/01/05 07:27:31;;;;;;;1.60;1.50;;;;;;;0.93;89.19;102553.47;4970388;28;20724;-72
2021/01/05 07:29:58;;;;;;;1.87;1.50;;;;;;;0.92;88.97;102559.63;4970201;28;20218;-72
2021/01/05 07:32:25;;;;;;;3.87;1.73;;;;;;;0.93;88.87;102556.09;4970431;28;20204;-72
2021/01/05 07:34:52;;;;;;;1.43;1.30;;;;;;;0.95;88.69;102563.16;4970247;28;20234;-72
2021/01/05 07:37:23;;;;;;;2.57;1.77;;;;;;;0.93;88.86;102561.38;4952659;28;20741;-72
2021/01/05 07:39:51;;;;;;;3.33;1.53;;;;;;;0.88;88.59;102552.53;4970447;28;20632;-72
2021/01/05 07:42:22;;;;;;;3.67;1.90;;;;;;;0.93;88.51;102553.47;4969826;28;20215;-72
2021/01/05 07:44:52;;;;;;;2.60;1.30;;;;;;;0.97;88.49;102556.97;4969530;28;20210;-72
2021/01/05 07:47:21;;;;;;;1.17;1.07;;;;;;;0.93;88.30;102560.50;4969522;28;20618;-71
2021/01/05 07:49:49;;;;;;;1.67;1.47;;;;;;;0.93;87.93;102565.81;4969536;28;20594;-72
2021/01/05 07:52:18;;;;;;;1.63;1.20;;;;;;;0.92;88.08;102562.28;4952217;28;20208;-72
2021/01/05 07:54:45;;;;;;;2.47;1.50;;;;;;;0.98;88.12;102571.09;4969450;28;20206;-72
2021/01/05 07:57:12;;;;;;;2.70;1.57;;;;;;;0.88;88.04;102565.75;4969623;28;20205;-72
2021/01/05 07:59:40;;;;;;;1.57;1.47;;;;;;;0.93;87.63;102566.69;4969822;28;20211;-72
2021/01/05 08:02:08;;;;;;;1.80;1.43;;;;;;;0.89;87.81;102566.66;4969430;28;20216;-72
2021/01/05 08:04:35;;;;;;;5.20;1.50;;;;;;;0.80;87.87;102559.59;4955508;28;21064;-72
2021/01/05 08:07:02;;;;;;;1.97;1.50;;;;;;;0.85;87.96;102570.16;4947279;28;20671;-72
2021/01/05 08:09:31;;;;;;;2.00;1.50;;;;;;;0.83;87.70;102562.22;4948974;28;20440;-72
2021/01/05 08:11:58;;;;;;;1.63;1.33;;;;;;;0.88;87.65;102568.41;4948993;28;20219;-72
2021/01/05 08:14:25;;;;;;;1.30;1.20;;;;;;;0.85;87.84;102567.53;4949060;28;20199;-72
2021/01/05 08:16:54;;;;;;;1.37;1.17;;;;;;;0.88;87.45;102571.06;4946761;28;20208;-72
2021/01/05 08:19:21;;;;;;;1.33;1.23;;;;;;;0.88;87.88;102570.16;4946480;28;20583;-72
2021/01/05 08:21:48;;;;;;;2.67;1.40;;;;;;;0.88;87.46;102567.53;4946690;28;20244;-73
2021/01/05 08:24:18;;;;;;;1.30;1.20;;;;;;;0.65;87.19;102527.84;4949934;28;20229;-73
2021/01/05 08:26:45;;;;;;;1.40;1.30;;;;;;;0.93;87.42;102566.69;4947956;28;20216;-72
2021/01/05 08:29:12;;;;;;;2.43;1.23;;;;;;;0.84;87.41;102558.72;4947601;28;20212;-72
2021/01/05 08:31:43;;;;;;;2.60;1.20;;;;;;;0.45;87.62;102501.38;4949620;28;20215;-72
2021/01/05 08:34:11;;;;;;;2.20;0.97;;;;;;;0.61;87.46;102526.06;4947597;28;20200;-72
2021/01/05 08:36:38;;;;;;;1.27;1.13;;;;;;;0.85;87.64;102559.59;4946313;28;20287;-72
2021/01/05 08:39:06;;;;;;;1.00;1.00;;;;;;;0.84;87.31;102549.91;4948099;28;20209;-72
2021/01/05 08:41:34;;;;;;;3.20;1.63;;;;;;;0.86;87.58;102562.25;4949581;28;20250;-72
2021/01/05 08:44:01;;;;;;;1.47;1.37;;;;;;;0.82;87.37;102563.13;4947749;28;20235;-72
2021/01/05 08:46:28;;;;;;;1.30;1.20;;;;;;;0.76;87.20;102560.47;4951644;28;20208;-72
2021/01/05 08:48:56;;;;;;;2.13;1.10;;;;;;;0.78;87.01;102561.34;4969068;28;20211;-73
2021/01/05 08:51:25;;;;;;;1.03;1.00;;;;;;;0.78;87.02;102561.34;4955602;28;20702;-72
2021/01/05 08:53:52;;;;;;;1.70;1.37;;;;;;;0.82;87.14;102568.41;4945619;29;20208;-73
2021/01/05 08:56:21;;;;;;;1.20;1.10;;;;;;;0.74;86.88;102556.06;4959047;28;20218;-72
2021/01/05 08:58:49;;;;;;;3.47;1.20;;;;;;;0.83;86.82;102564.88;4961393;28;20215;-72
2021/01/05 09:01:16;;;;;;;1.13;1.10;;;;;;;0.82;87.07;102563.13;4948703;28;20631;-72
2021/01/05 09:03:44;;;;;;;1.33;1.10;;;;;;;0.85;86.81;102563.13;4948319;28;20219;-72
2021/01/05 09:06:12;;;;;;;1.30;0.90;;;;;;;0.59;86.94;102523.41;4949176;28;20688;-72
2021/01/05 09:08:40;;;;;;;1.50;1.10;;;;;;;0.87;86.82;102561.34;4949321;28;20204;-72
2021/01/05 09:11:16;;;;;;;1.80;1.13;;;;;;;0.85;86.74;102552.53;4948818;28;20726;-72
2021/01/05 09:13:43;;;;;;;1.90;1.13;;;;;;;0.83;86.82;102541.09;4948465;28;20574;-72
2021/01/05 09:16:10;;;;;;;1.10;1.00;;;;;;;0.81;86.81;102549.91;4949251;28;20218;-72
2021/01/05 09:18:37;;;;;;;2.20;1.27;;;;;;;0.85;87.11;102549.00;4948574;28;20212;-72
2021/01/05 09:21:05;;;;;;;1.17;1.03;;;;;;;0.85;86.78;102557.81;4948414;29;20656;-72
2021/01/05 09:23:32;;;;;;;1.87;1.23;;;;;;;0.82;86.60;102556.94;4944393;28;20777;-72
2021/01/05 09:26:00;;;;;;;2.03;1.30;;;;;;;0.85;86.59;102555.19;4949621;28;20208;-72
2021/01/05 09:28:27;;;;;;;1.23;1.00;;;;;;;0.83;86.56;102549.00;4948563;28;20213;-72
2021/01/05 09:30:55;;;;;;;2.23;1.27;;;;;;;0.98;86.29;102557.88;4947732;28;20205;-72
2021/01/05 09:33:23;;;;;;;1.73;1.00;;;;;;;0.92;86.24;102551.69;4947678;28;20287;-72
2021/01/05 09:35:50;;;;;;;1.60;0.90;;;;;;;0.92;86.18;102549.06;4945364;28;20508;-72
2021/01/05 09:38:17;;;;;;;1.17;1.07;;;;;;;0.92;85.92;102554.34;4947570;28;20207;-72
2021/01/05 09:40:44;;;;;;;0.80;0.80;;;;;;;0.87;86.02;102550.78;4947153;28;20223;-73
2021/01/05 09:43:13;;;;;;;1.17;1.07;;;;;;;0.80;86.17;102559.59;4944355;28;20227;-72
2021/01/05 09:45:40;;;;;;;1.10;1.00;;;;;;;0.77;86.22;102551.66;4946361;28;20203;-72
2021/01/05 09:48:09;;;;;;;1.03;0.97;;;;;;;0.78;86.02;102545.50;4942662;28;20244;-72
2021/01/05 09:50:39;;;;;;;1.10;1.00;;;;;;;0.53;86.08;102512.81;4947410;28;20211;-71
2021/01/05 09:53:06;;;;;;;1.30;1.07;;;;;;;0.75;85.86;102556.06;4946978;28;20212;-73
2021/01/05 09:55:34;;;;;;;1.10;1.10;;;;;;;0.75;86.10;102556.06;4947475;28;20644;-73
2021/01/05 09:58:01;;;;;;;1.23;1.10;;;;;;;0.77;86.05;102543.72;4933405;28;20215;-72
2021/01/05 10:00:29;;;;;;;0.80;0.80;;;;;;;0.80;85.99;102551.66;4946488;28;20212;-71
2021/01/05 10:02:57;;;;;;;1.37;0.97;;;;;;;0.77;85.99;102558.72;4946442;28;20606;-71
2021/01/05 10:05:24;;;;;;;1.83;1.10;;;;;;;0.78;86.06;102563.13;4946235;28;20579;-71
2021/01/05 10:07:51;;;;;;;0.80;0.80;;;;;;;0.82;85.60;102551.66;4947492;28;20218;-72
2021/01/05 10:10:21;;;;;;;1.27;1.00;;;;;;;0.93;85.42;102549.94;4943525;28;20281;-71
2021/01/05 10:12:48;;;;;;;1.10;1.00;;;;;;;0.83;85.38;102551.66;4947803;28;20211;-72
2021/01/05 10:15:18;;;;;;;1.17;1.00;;;;;;;0.82;85.11;102547.25;4947974;28;20682;-71
2021/01/05 10:17:46;;;;;;;1.30;1.10;;;;;;;0.80;85.31;102554.31;4940025;28;20575;-71
2021/01/05 10:20:14;;;;;;;1.63;0.97;;;;;;;0.86;85.10;102559.59;4945529;28;20215;-71
2021/01/05 10:22:42;;;;;;;1.13;1.00;;;;;;;0.87;84.81;102561.34;4944370;28;20245;-72
2021/01/05 10:25:11;;;;;;;1.77;0.90;;;;;;;0.80;85.00;102551.66;4949418;28;20678;-72
2021/01/05 10:27:38;;;;;;;1.53;1.10;;;;;;;0.82;84.81;102552.53;4950578;28;20212;-71
2021/01/05 10:30:08;;;;;;;1.13;1.00;;;;;;;0.86;84.96;102553.41;4931369;29;20675;-72
2021/01/05 10:32:35;;;;;;;1.13;1.03;;;;;;;0.97;84.84;102556.09;4950074;28;20212;-71
2021/01/05 10:35:05;;;;;;;1.60;0.90;;;;;;;0.91;84.50;102565.75;4947963;28;20641;-72
2021/01/05 10:37:32;;;;;;;1.20;1.10;;;;;;;0.85;84.88;102554.31;4949900;28;20213;-72
2021/01/05 10:40:07;;;;;;;0.90;0.90;;;;;;;0.86;84.64;102550.78;4942619;28;20770;-72
2021/01/05 10:42:34;;;;;;;1.13;1.03;;;;;;;0.88;84.60;102555.19;4945327;28;20613;-72
2021/01/05 10:45:01;;;;;;;1.13;1.10;;;;;;;0.88;84.58;102551.66;4945122;28;20210;-72
2021/01/05 10:47:28;;;;;;;1.43;1.27;;;;;;;0.88;84.74;102555.19;4948448;28;20244;-72
2021/01/05 10:49:55;;;;;;;1.07;1.07;;;;;;;0.88;84.76;102557.84;4945747;28;20214;-71
2021/01/05 10:52:23;;;;;;;0.93;0.93;;;;;;;0.86;84.37;102558.72;4933046;29;20199;-72
2021/01/05 10:54:50;;;;;;;1.43;1.00;;;;;;;0.89;84.31;102543.72;4949094;28;20194;-71
2021/01/05 10:57:19;;;;;;;1.33;1.00;;;;;;;0.84;84.27;102560.47;4949337;28;20213;-71
2021/01/05 10:59:46;;;;;;;0.97;0.87;;;;;;;0.83;84.56;102558.72;4948463;28;20218;-71
2021/01/05 11:02:13;;;;;;;1.70;1.20;;;;;;;0.73;84.33;102544.59;4945128;28;20203;-72
2021/01/05 11:04:40;;;;;;;1.30;1.20;;;;;;;0.75;84.65;102534.91;4945789;28;20710;-71
2021/01/05 11:07:12;;;;;;;1.87;1.13;;;;;;;0.89;84.15;102554.31;4948076;28;20201;-71
2021/01/05 11:09:40;;;;;;;1.27;1.17;;;;;;;0.83;83.85;102542.84;4945468;28;20597;-72
2021/01/05 11:12:10;;;;;;;1.53;1.10;;;;;;;0.84;84.12;102542.84;4946332;28;20341;-72
2021/01/05 11:14:38;;;;;;;1.17;1.07;;;;;;;0.86;84.81;102548.13;4927802;29;20299;-71
2021/01/05 11:17:05;;;;;;;1.00;1.00;;;;;;;0.89;84.61;102546.38;4944783;28;20204;-71
2021/01/05 11:19:33;;;;;;;1.90;1.33;;;;;;;0.85;84.23;102552.53;4944747;28;20206;-71
2021/01/05 11:22:02;;;;;;;3.50;1.03;;;;;;;0.86;84.44;102543.72;4944709;28;20232;-71
2021/01/05 11:24:30;;;;;;;1.20;1.10;;;;;;;0.93;84.46;102545.53;4945234;28;20221;-71
2021/01/05 11:26:58;;;;;;;1.57;1.43;;;;;;;0.89;83.83;102535.78;4945736;28;20633;-71
2021/01/05 11:29:26;;;;;;;4.47;3.50;;;;;;;0.57;83.81;102468.78;4940685;28;20200;-71
2021/01/05 11:31:55;;;;;;;1.43;0.90;;;;;;;0.98;83.92;102531.41;4940318;28;20563;-72
2021/01/05 11:34:23;;;;;;;1.03;0.83;;;;;;;0.88;83.85;102530.50;4946716;28;20215;-72
2021/01/05 11:36:50;;;;;;;1.23;0.87;;;;;;;0.87;83.81;102521.69;4943780;28;20203;-71
2021/01/05 11:39:18;;;;;;;0.97;0.77;;;;;;;0.68;83.70;102488.22;4949009;28;20199;-71
2021/01/05 11:41:45;;;;;;;1.03;0.93;;;;;;;0.69;83.56;102508.47;4944846;28;20204;-72
2021/01/05 11:44:14;;;;;;;3.73;0.90;;;;;;;0.81;83.86;102529.63;4948777;28;20739;-72
2021/01/05 11:46:42;;;;;;;0.90;0.80;;;;;;;0.80;83.75;102527.88;4947336;28;20691;-72
2021/01/05 11:49:09;;;;;;;0.80;0.80;;;;;;;0.79;83.73;102534.03;4949036;28;20535;-71
2021/01/05 11:51:37;;;;;;;0.80;0.80;;;;;;;0.73;83.55;102531.38;4946019;28;20214;-71
2021/01/05 11:54:05;;;;;;;2.30;1.00;;;;;;;0.84;83.55;102523.47;4946754;28;20216;-71
2021/01/05 11:56:34;;;;;;;1.07;0.70;;;;;;;0.83;83.72;102521.69;4947929;28;20214;-71
2021/01/05 11:59:02;;;;;;;1.13;1.03;;;;;;;0.63;83.71;102491.72;4946988;28;20209;-71
2021/01/05 12:01:36;;;;;;;1.00;1.00;;;;;;;0.54;83.53;102482.88;4946227;28;20291;-71